createdAt,value
2023-03-05T00:00:27.198Z,101591.72
2023-03-05T00:02:53.686Z,101583.13
2023-03-05T00:05:20.016Z,101583.19
2023-03-05T00:07:46.301Z,101583.19
2023-03-05T00:10:12.647Z,101580.91
2023-03-05T00:12:39.017Z,101574.63
2023-03-05T00:15:05.326Z,101576.91
2023-03-05T00:17:31.663Z,101578.91
2023-03-05T00:19:57.978Z,101576.56
2023-03-05T00:22:24.337Z,101568.53
2023-03-05T00:24:50.664Z,101574.25
2023-03-05T00:27:17.010Z,101577.75
2023-03-05T00:29:43.413Z,101570.75
2023-03-05T00:32:09.876Z,101575.78
2023-03-05T00:34:36.218Z,101583.19
2023-03-05T00:37:02.632Z,101579.00
2023-03-05T00:39:29.008Z,101577.03
2023-03-05T00:41:55.365Z,101571.59
2023-03-05T00:44:21.701Z,101573.47
2023-03-05T00:46:48.101Z,101577.03
2023-03-05T00:49:14.521Z,101571.19
2023-03-05T00:51:40.928Z,101571.53
2023-03-05T00:54:07.262Z,101569.22
2023-03-05T00:56:33.604Z,101557.97
2023-03-05T00:58:59.988Z,101555.19
2023-03-05T01:01:26.310Z,101558.75
2023-03-05T01:03:52.684Z,101548.28
2023-03-05T01:06:19.078Z,101557.19
2023-03-05T01:08:45.387Z,101556.16
2023-03-05T01:11:11.693Z,101559.19
2023-03-05T01:13:38.098Z,101552.19
2023-03-05T01:16:04.489Z,101540.19
2023-03-05T01:18:30.839Z,101548.28
2023-03-05T01:20:57.142Z,101547.50
2023-03-05T01:23:23.498Z,101551.00
2023-03-05T01:25:49.796Z,101543.56
2023-03-05T01:28:16.172Z,101540.13
2023-03-05T01:30:42.498Z,101540.53
2023-03-05T01:33:08.849Z,101532.09
2023-03-05T01:35:35.185Z,101532.78
2023-03-05T01:38:01.530Z,101525.03
2023-03-05T01:40:27.925Z,101519.06
2023-03-05T01:42:54.279Z,101515.16
2023-03-05T01:45:20.621Z,101506.22
2023-03-05T01:47:46.952Z,101508.59
2023-03-05T01:50:13.290Z,101504.69
2023-03-05T01:52:39.603Z,101503.16
2023-03-05T01:55:06.018Z,101497.69
2023-03-05T01:57:32.321Z,101504.00
2023-03-05T01:59:58.633Z,101497.63
2023-03-05T02:02:25.043Z,101501.97
2023-03-05T02:04:51.384Z,101489.88
2023-03-05T02:07:17.772Z,101493.81
2023-03-05T02:09:44.106Z,101492.25
2023-03-05T02:12:10.483Z,101488.75
2023-03-05T02:14:36.812Z,101486.81
2023-03-05T02:17:03.131Z,101478.63
2023-03-05T02:19:29.503Z,101478.97
2023-03-05T02:21:55.804Z,101475.91
2023-03-05T02:24:22.154Z,101469.69
2023-03-05T02:26:48.513Z,101471.25
2023-03-05T02:29:14.881Z,101461.97
2023-03-05T02:31:41.204Z,101458.03
2023-03-05T02:34:07.553Z,101450.22
2023-03-05T02:36:33.932Z,101451.06
2023-03-05T02:39:00.265Z,101446.78
2023-03-05T02:41:26.606Z,101443.22
2023-03-05T02:43:52.968Z,101434.34
2023-03-05T02:46:19.333Z,101430.00
2023-03-05T02:48:45.664Z,101435.47
2023-03-05T02:51:12.096Z,101436.22
2023-03-05T02:53:38.405Z,101425.78
2023-03-05T02:56:04.863Z,101428.91
2023-03-05T02:58:31.173Z,101426.09
2023-03-05T03:00:57.543Z,101420.75
2023-03-05T03:03:23.991Z,101419.88
2023-03-05T03:05:50.308Z,101425.34
2023-03-05T03:08:16.600Z,101413.66
2023-03-05T03:10:42.916Z,101415.28
2023-03-05T03:13:09.282Z,101408.31
2023-03-05T03:15:35.609Z,101407.13
2023-03-05T03:18:01.917Z,101406.28
2023-03-05T03:20:28.230Z,101404.84
2023-03-05T03:22:54.591Z,101399.03
2023-03-05T03:25:20.915Z,101398.19
2023-03-05T03:27:47.234Z,101393.94
2023-03-05T03:30:13.569Z,101395.81
2023-03-05T03:32:39.918Z,101391.53
2023-03-05T03:35:06.280Z,101393.16
2023-03-05T03:37:32.595Z,101387.66
2023-03-05T03:39:58.927Z,101381.06
2023-03-05T03:42:25.284Z,101391.13
2023-03-05T03:44:51.662Z,101385.78
2023-03-05T03:47:18.018Z,101381.41
2023-03-05T03:49:44.397Z,101379.09
2023-03-05T03:52:10.781Z,101375.63
2023-03-05T03:54:37.094Z,101372.91
2023-03-05T03:57:03.442Z,101367.88
2023-03-05T03:59:29.875Z,101367.88
2023-03-05T04:01:56.199Z,101367.44
2023-03-05T04:04:22.564Z,101363.22
2023-03-05T04:06:48.949Z,101372.16
2023-03-05T04:09:15.279Z,101371.38
2023-03-05T04:11:41.622Z,101356.22
2023-03-05T04:14:07.993Z,101360.81
2023-03-05T04:16:34.332Z,101363.22
2023-03-05T04:19:00.663Z,101356.56
2023-03-05T04:21:27.013Z,101360.81
2023-03-05T04:23:53.396Z,101362.44
2023-03-05T04:26:19.777Z,101362.44
2023-03-05T04:28:46.102Z,101353.97
2023-03-05T04:31:12.530Z,101358.16
2023-03-05T04:33:38.902Z,101355.81
2023-03-05T04:36:05.322Z,101353.81
2023-03-05T04:38:31.701Z,101355.88
2023-03-05T04:40:58.040Z,101350.44
2023-03-05T04:43:24.381Z,101342.94
2023-03-05T04:45:50.752Z,101343.78
2023-03-05T04:48:17.096Z,101342.94
2023-03-05T04:50:43.457Z,101336.38
2023-03-05T04:53:09.808Z,101336.38
2023-03-05T04:55:36.151Z,101337.47
2023-03-05T04:58:02.511Z,101333.25
2023-03-05T05:00:28.834Z,101334.84
2023-03-05T05:02:55.218Z,101327.03
2023-03-05T05:05:21.632Z,101323.94
2023-03-05T05:07:48.002Z,101322.00
2023-03-05T05:10:14.352Z,101321.22
2023-03-05T05:12:40.730Z,101316.53
2023-03-05T05:15:07.048Z,101313.06
2023-03-05T05:17:33.348Z,101314.25
2023-03-05T05:19:59.743Z,101308.72
2023-03-05T05:22:26.080Z,101307.97
2023-03-05T05:24:52.462Z,101310.31
2023-03-05T05:27:18.783Z,101304.88
2023-03-05T05:29:45.087Z,101303.00
2023-03-05T05:32:11.421Z,101305.66
2023-03-05T05:34:37.775Z,101298.69
2023-03-05T05:37:04.130Z,101298.34
2023-03-05T05:39:30.602Z,101300.56
2023-03-05T05:41:56.931Z,101298.69
2023-03-05T05:44:23.284Z,101296.72
2023-03-05T05:46:49.677Z,101303.44
2023-03-05T05:49:16.097Z,101299.44
2023-03-05T05:51:42.421Z,101297.16
2023-03-05T05:54:08.754Z,101293.75
2023-03-05T05:56:35.116Z,101294.84
2023-03-05T05:59:01.433Z,101291.72
2023-03-05T06:01:27.779Z,101285.50
2023-03-05T06:03:54.108Z,101293.25
2023-03-05T06:06:20.434Z,101289.31
2023-03-05T06:08:46.812Z,101291.25
2023-03-05T06:11:13.127Z,101285.06
2023-03-05T06:13:39.489Z,101291.72
2023-03-05T06:16:05.858Z,101287.81
2023-03-05T06:18:32.210Z,101281.66
2023-03-05T06:20:58.522Z,101280.81
2023-03-05T06:23:24.850Z,101285.16
2023-03-05T06:25:51.262Z,101282.44
2023-03-05T06:28:17.602Z,101283.25
2023-03-05T06:30:43.951Z,101289.06
2023-03-05T06:33:10.343Z,101288.28
2023-03-05T06:35:37.834Z,101287.81
2023-03-05T06:38:04.196Z,101285.91
2023-03-05T06:40:30.574Z,101282.75
2023-03-05T06:42:56.985Z,101296.78
2023-03-05T06:45:23.302Z,101288.91
2023-03-05T06:47:49.886Z,101284.31
2023-03-05T06:50:16.256Z,101284.72
2023-03-05T06:52:42.663Z,101285.50
2023-03-05T06:55:08.997Z,101279.63
2023-03-05T06:57:35.356Z,101281.22
2023-03-05T07:00:01.746Z,101276.91
2023-03-05T07:02:28.176Z,101278.41
2023-03-05T07:04:54.556Z,101277.72
2023-03-05T07:07:20.904Z,101280.91
2023-03-05T07:09:47.224Z,101276.53
2023-03-05T07:12:13.532Z,101278.09
2023-03-05T07:14:39.887Z,101278.84
2023-03-05T07:17:06.259Z,101275.44
2023-03-05T07:19:32.612Z,101277.56
2023-03-05T07:21:58.981Z,101286.09
2023-03-05T07:24:25.296Z,101284.91
2023-03-05T07:26:51.698Z,101282.19
2023-03-05T07:29:18.043Z,101276.63
2023-03-05T07:31:44.352Z,101283.69
2023-03-05T07:34:10.666Z,101285.22
2023-03-05T07:36:37.054Z,101281.75
2023-03-05T07:39:03.376Z,101279.78
2023-03-05T07:41:29.688Z,101280.19
2023-03-05T07:43:56.077Z,101282.84
2023-03-05T07:46:22.494Z,101287.19
2023-03-05T07:48:48.951Z,101282.94
2023-03-05T07:51:15.302Z,101285.22
2023-03-05T07:53:41.597Z,101285.31
2023-03-05T07:56:07.924Z,101283.38
2023-03-05T07:58:34.249Z,101275.97
2023-03-05T08:01:00.552Z,101277.84
2023-03-05T08:03:26.901Z,101280.56
2023-03-05T08:05:53.281Z,101282.50
2023-03-05T08:08:19.627Z,101277.38
2023-03-05T08:10:45.972Z,101278.59
2023-03-05T08:13:12.331Z,101284.47
2023-03-05T08:15:38.725Z,101271.28
2023-03-05T08:18:05.109Z,101271.94
2023-03-05T08:20:31.406Z,101270.44
2023-03-05T08:22:57.792Z,101268.81
2023-03-05T08:25:24.120Z,101267.25
2023-03-05T08:27:50.472Z,101262.25
2023-03-05T08:30:16.851Z,101266.50
2023-03-05T08:32:43.211Z,101266.84
2023-03-05T08:35:09.609Z,101258.69
2023-03-05T08:37:35.978Z,101257.13
2023-03-05T08:40:02.301Z,101264.38
2023-03-05T08:42:28.681Z,101261.66
2023-03-05T08:44:55.086Z,101263.53
2023-03-05T08:47:21.465Z,101254.75
2023-03-05T08:49:47.946Z,101262.44
2023-03-05T08:52:14.302Z,101261.47
2023-03-05T08:54:40.671Z,101252.97
2023-03-05T08:57:07.063Z,101258.50
2023-03-05T08:59:33.411Z,101254.94
2023-03-05T09:01:59.722Z,101253.50
2023-03-05T09:04:26.082Z,101251.34
2023-03-05T09:06:52.400Z,101250.94
2023-03-05T09:09:18.730Z,101243.53
2023-03-05T09:11:45.109Z,101249.00
2023-03-05T09:14:11.423Z,101252.03
2023-03-05T09:16:37.824Z,101249.13
2023-03-05T09:19:04.234Z,101244.06
2023-03-05T09:21:30.604Z,101248.28
2023-03-05T09:23:56.972Z,101245.22
2023-03-05T09:26:23.316Z,101245.91
2023-03-05T09:28:49.635Z,101241.22
2023-03-05T09:31:16.137Z,101247.88
2023-03-05T09:33:42.520Z,101238.16
2023-03-05T09:36:08.825Z,101241.75
2023-03-05T09:38:35.187Z,101231.63
2023-03-05T09:41:01.494Z,101238.84
2023-03-05T09:43:27.856Z,101228.03
2023-03-05T09:45:54.244Z,101227.19
2023-03-05T09:48:20.659Z,101223.75
2023-03-05T09:50:47.023Z,101220.38
2023-03-05T09:53:13.379Z,101222.13
2023-03-05T09:55:39.892Z,101219.31
2023-03-05T09:58:06.193Z,101213.88
2023-03-05T10:00:32.623Z,101209.78
2023-03-05T10:02:59.073Z,101200.16
2023-03-05T10:05:25.396Z,101195.03
2023-03-05T10:07:51.754Z,101187.09
2023-03-05T10:10:18.153Z,101183.94
2023-03-05T10:12:44.508Z,101186.00
2023-03-05T10:15:10.862Z,101189.06
2023-03-05T10:17:37.184Z,101182.25
2023-03-05T10:20:03.565Z,101181.16
2023-03-05T10:22:29.992Z,101176.22
2023-03-05T10:24:56.340Z,101181.06
2023-03-05T10:27:22.763Z,101182.16
2023-03-05T10:29:49.099Z,101175.50
2023-03-05T10:32:15.587Z,101173.13
2023-03-05T10:34:41.946Z,101174.31
2023-03-05T10:37:08.296Z,101170.50
2023-03-05T10:39:34.662Z,101174.72
2023-03-05T10:42:00.978Z,101163.09
2023-03-05T10:44:27.271Z,101163.50
2023-03-05T10:46:55.175Z,101159.78
2023-03-05T10:49:22.295Z,101160.56
2023-03-05T10:51:48.632Z,101160.88
2023-03-05T10:54:14.980Z,101154.16
2023-03-05T10:56:41.332Z,101160.38
2023-03-05T10:59:07.689Z,101152.06
2023-03-05T11:01:34.100Z,101149.78
2023-03-05T11:04:00.547Z,101150.97
2023-03-05T11:06:26.973Z,101148.25
2023-03-05T11:08:53.437Z,101151.63
2023-03-05T11:11:19.803Z,101145.00
2023-03-05T11:13:46.214Z,101144.00
2023-03-05T11:16:12.593Z,101148.03
2023-03-05T11:18:39.024Z,101138.69
2023-03-05T11:21:05.374Z,101142.94
2023-03-05T11:23:31.747Z,101132.34
2023-03-05T11:25:58.058Z,101136.63
2023-03-05T11:28:32.968Z,101136.63
2023-03-05T11:31:00.172Z,101138.13
2023-03-05T11:33:26.614Z,101140.94
2023-03-05T11:35:53.082Z,101134.31
2023-03-05T11:38:19.511Z,101128.44
2023-03-05T11:40:45.881Z,101123.19
2023-03-05T11:43:12.202Z,101114.03
2023-03-05T11:45:38.618Z,101119.91
2023-03-05T11:48:05.030Z,101113.47
2023-03-05T11:50:31.373Z,101116.53
2023-03-05T11:52:57.781Z,101113.78
2023-03-05T11:55:24.101Z,101105.63
2023-03-05T11:57:50.507Z,101108.69
2023-03-05T12:00:16.890Z,101098.63
2023-03-05T12:02:43.326Z,101096.91
2023-03-05T12:05:09.781Z,101091.00
2023-03-05T12:07:36.163Z,101090.22
2023-03-05T12:10:02.570Z,101083.16
2023-03-05T12:12:29.075Z,101083.16
2023-03-05T12:14:55.410Z,101078.91
2023-03-05T12:17:21.815Z,101073.47
2023-03-05T12:19:48.294Z,101068.31
2023-03-05T12:22:14.670Z,101061.03
2023-03-05T12:24:41.072Z,101053.94
2023-03-05T12:27:07.542Z,101052.31
2023-03-05T12:29:33.918Z,101040.84
2023-03-05T12:32:00.369Z,101043.03
2023-03-05T12:34:26.879Z,101040.31
2023-03-05T12:36:53.414Z,101034.09
2023-03-05T12:39:19.823Z,101032.88
2023-03-05T12:41:46.183Z,101028.22
2023-03-05T12:44:12.547Z,101019.81
2023-03-05T12:46:38.959Z,101014.25
2023-03-05T12:49:05.377Z,101015.03
2023-03-05T12:51:31.779Z,101005.75
2023-03-05T12:53:58.077Z,101004.53
2023-03-05T12:56:24.378Z,100998.63
2023-03-05T12:58:50.765Z,100985.66
2023-03-05T13:01:17.083Z,100981.88
2023-03-05T13:03:43.457Z,100984.59
2023-03-05T13:06:09.857Z,100979.22
2023-03-05T13:08:36.222Z,100980.09
2023-03-05T13:11:02.561Z,100973.44
2023-03-05T13:13:28.958Z,100964.53
2023-03-05T13:15:55.311Z,100961.03
2023-03-05T13:18:21.632Z,100959.06
2023-03-05T13:20:47.951Z,100958.41
2023-03-05T13:23:14.321Z,100954.03
2023-03-05T13:25:40.654Z,100944.44
2023-03-05T13:28:06.962Z,100944.34
2023-03-05T13:30:34.733Z,100945.44
2023-03-05T13:33:01.169Z,100930.28
2023-03-05T13:35:27.501Z,100927.44
2023-03-05T13:37:53.815Z,100930.19
2023-03-05T13:40:20.151Z,100920.91
2023-03-05T13:42:46.536Z,100913.16
2023-03-05T13:45:12.892Z,100915.13
2023-03-05T13:47:39.191Z,100909.25
2023-03-05T13:50:05.507Z,100901.84
2023-03-05T13:52:31.827Z,100908.50
2023-03-05T13:54:58.130Z,100901.84
2023-03-05T13:57:24.444Z,100893.56
2023-03-05T13:59:50.819Z,100891.69
2023-03-05T14:02:17.190Z,100879.59
2023-03-05T14:04:43.666Z,100890.50
2023-03-05T14:07:10.078Z,100882.66
2023-03-05T14:09:36.375Z,100879.47
2023-03-05T14:12:02.737Z,100875.22
2023-03-05T14:14:29.138Z,100874.03
2023-03-05T14:16:55.726Z,100871.00
2023-03-05T14:19:22.084Z,100864.56
2023-03-05T14:21:48.409Z,100867.41
2023-03-05T14:24:14.795Z,100862.38
2023-03-05T14:26:41.182Z,100856.91
2023-03-05T14:29:07.556Z,100853.00
2023-03-05T14:31:33.926Z,100848.34
2023-03-05T14:34:00.309Z,100841.69
2023-03-05T14:36:26.674Z,100835.56
2023-03-05T14:38:53.012Z,100831.63
2023-03-05T14:41:19.400Z,100826.63
2023-03-05T14:43:45.747Z,100822.59
2023-03-05T14:46:13.429Z,100815.38
2023-03-05T14:48:39.962Z,100816.16
2023-03-05T14:51:06.330Z,100803.28
2023-03-05T14:53:32.678Z,100800.38
2023-03-05T14:55:58.997Z,100804.59
2023-03-05T14:58:25.346Z,100792.63
2023-03-05T15:00:51.699Z,100801.56
2023-03-05T15:03:18.034Z,100787.31
2023-03-05T15:05:44.387Z,100782.81
2023-03-05T15:08:10.845Z,100775.75
2023-03-05T15:10:37.143Z,100768.88
2023-03-05T15:13:03.454Z,100757.56
2023-03-05T15:15:29.860Z,100758.16
2023-03-05T15:17:56.220Z,100751.66
2023-03-05T15:20:22.537Z,100750.00
2023-03-05T15:22:48.864Z,100753.81
2023-03-05T15:25:15.172Z,100754.38
2023-03-05T15:27:41.504Z,100749.81
2023-03-05T15:30:07.852Z,100746.53
2023-03-05T15:32:34.216Z,100735.63
2023-03-05T15:35:00.599Z,100745.44
2023-03-05T15:37:26.905Z,100734.53
2023-03-05T15:39:53.236Z,100736.19
2023-03-05T15:42:19.553Z,100734.53
2023-03-05T15:44:45.867Z,100729.00
2023-03-05T15:47:12.201Z,100737.06
2023-03-05T15:49:38.518Z,100728.31
2023-03-05T15:52:04.814Z,100728.31
2023-03-05T15:54:31.130Z,100731.84
2023-03-05T15:56:57.437Z,100722.69
2023-03-05T15:59:23.737Z,100725.28
2023-03-05T16:01:50.085Z,100729.06
2023-03-05T16:04:16.437Z,100721.16
2023-03-05T16:06:42.801Z,100720.38
2023-03-05T16:09:09.127Z,100720.38
2023-03-05T16:11:35.479Z,100716.59
2023-03-05T16:14:01.855Z,100710.72
2023-03-05T16:16:28.212Z,100710.38
2023-03-05T16:18:54.603Z,100706.69
2023-03-05T16:21:20.959Z,100696.88
2023-03-05T16:23:47.384Z,100708.88
2023-03-05T16:26:13.724Z,100691.22
2023-03-05T16:28:40.087Z,100694.59
2023-03-05T16:31:06.545Z,100685.53
2023-03-05T16:33:32.952Z,100690.59
2023-03-05T16:35:59.350Z,100681.22
2023-03-05T16:38:25.744Z,100685.53
2023-03-05T16:41:07.214Z,100676.28
2023-03-05T16:43:34.012Z,100682.72
2023-03-05T16:46:00.327Z,100678.16
2023-03-05T16:48:26.655Z,100670.97
2023-03-05T16:50:53.002Z,100670.97
2023-03-05T16:53:19.371Z,100664.63
2023-03-05T16:55:45.680Z,100658.97
2023-03-05T16:58:12.005Z,100655.19
2023-03-05T17:00:38.393Z,100647.00
2023-03-05T17:03:04.830Z,100649.31
2023-03-05T17:05:31.229Z,100640.03
2023-03-05T17:07:57.610Z,100638.78
2023-03-05T17:10:23.926Z,100630.59
2023-03-05T17:12:50.264Z,100622.81
2023-03-05T17:15:16.638Z,100628.97
2023-03-05T17:17:43.012Z,100622.06
2023-03-05T17:20:09.343Z,100637.41
2023-03-05T17:22:35.682Z,100638.78
2023-03-05T17:25:01.997Z,100627.25
2023-03-05T17:27:28.311Z,100626.69
2023-03-05T17:29:54.700Z,100623.84
2023-03-05T17:32:21.089Z,100628.75
2023-03-05T17:34:47.440Z,100639.13
2023-03-05T17:37:13.803Z,100636.38
2023-03-05T17:39:40.118Z,100639.41
2023-03-05T17:42:06.473Z,100637.78
2023-03-05T17:44:32.964Z,100633.53
2023-03-05T17:46:59.374Z,100629.28
2023-03-05T17:49:25.719Z,100627.31
2023-03-05T17:51:52.031Z,100625.03
2023-03-05T17:54:18.359Z,100626.25
2023-03-05T17:56:44.660Z,100625.91
2023-03-05T17:59:11.007Z,100626.25
2023-03-05T18:01:37.405Z,100623.66
2023-03-05T18:04:04.043Z,100622.75
2023-03-05T18:06:30.457Z,100615.34
2023-03-05T18:08:56.932Z,100617.97
2023-03-05T18:11:23.266Z,100623.41
2023-03-05T18:13:49.615Z,100619.47
2023-03-05T18:16:15.986Z,100622.31
2023-03-05T18:18:42.405Z,100616.00
2023-03-05T18:21:08.806Z,100613.69
2023-03-05T18:23:35.168Z,100617.19
2023-03-05T18:26:01.574Z,100613.44
2023-03-05T18:28:27.969Z,100621.22
2023-03-05T18:30:54.396Z,100623.41
2023-03-05T18:33:20.720Z,100621.09
2023-03-05T18:35:47.189Z,100613.25
2023-03-05T18:38:13.504Z,100608.13
2023-03-05T18:40:39.884Z,100604.31
2023-03-05T18:43:06.259Z,100607.81
2023-03-05T18:45:32.617Z,100612.50
2023-03-05T18:47:59.005Z,100600.84
2023-03-05T18:50:25.378Z,100604.19
2023-03-05T18:52:51.794Z,100603.13
2023-03-05T18:55:18.177Z,100598.94
2023-03-05T18:57:44.563Z,100599.25
2023-03-05T19:00:10.918Z,100601.66
2023-03-05T19:02:37.284Z,100599.13
2023-03-05T19:05:03.596Z,100588.53
2023-03-05T19:07:30.041Z,100595.94
2023-03-05T19:09:59.363Z,100587.00
2023-03-05T19:12:25.856Z,100589.44
2023-03-05T19:14:52.204Z,100589.00
2023-03-05T19:17:18.587Z,100585.94
2023-03-05T19:19:44.910Z,100582.78
2023-03-05T19:22:11.274Z,100585.19
2023-03-05T19:24:37.593Z,100586.84
2023-03-05T19:27:04.069Z,100579.31
2023-03-05T19:29:32.803Z,100575.19
2023-03-05T19:31:59.274Z,100571.69
2023-03-05T19:34:25.658Z,100575.94
2023-03-05T19:36:52.029Z,100576.25
2023-03-05T19:39:18.388Z,100577.00
2023-03-05T19:41:44.748Z,100582.59
2023-03-05T19:44:11.198Z,100586.06
2023-03-05T19:46:37.550Z,100574.75
2023-03-05T19:49:03.897Z,100576.72
2023-03-05T19:51:30.234Z,100575.50
2023-03-05T19:53:56.529Z,100570.94
2023-03-05T19:56:22.891Z,100565.47
2023-03-05T19:58:49.307Z,100564.63
2023-03-05T20:01:15.670Z,100558.06
2023-03-05T20:03:42.037Z,100560.03
2023-03-05T20:06:08.343Z,100553.50
2023-03-05T20:08:34.663Z,100551.88
2023-03-05T20:11:01.025Z,100549.25
2023-03-05T20:13:27.433Z,100545.34
2023-03-05T20:15:53.845Z,100543.81
2023-03-05T20:18:20.232Z,100537.03
2023-03-05T20:20:46.578Z,100541.44
2023-03-05T20:23:12.936Z,100534.16
2023-03-05T20:25:39.303Z,100527.16
2023-03-05T20:28:05.628Z,100525.97
2023-03-05T20:30:32.003Z,100526.41
2023-03-05T20:32:58.324Z,100527.16
2023-03-05T20:35:24.677Z,100524.00
2023-03-05T20:37:51.045Z,100514.31
2023-03-05T20:40:17.446Z,100517.03
2023-03-05T20:42:43.992Z,100511.59
2023-03-05T20:45:10.403Z,100515.97
2023-03-05T20:47:36.786Z,100510.06
2023-03-05T20:50:03.148Z,100510.19
2023-03-05T20:52:29.486Z,100501.91
2023-03-05T20:54:55.794Z,100498.88
2023-03-05T20:57:22.133Z,100502.78
2023-03-05T20:59:48.479Z,100499.16
2023-03-05T21:02:14.902Z,100497.34
2023-03-05T21:04:41.250Z,100490.56
2023-03-05T21:07:07.598Z,100496.44
2023-03-05T21:09:33.968Z,100484.03
2023-03-05T21:12:00.319Z,100487.97
2023-03-05T21:14:26.689Z,100480.09
2023-03-05T21:16:53.017Z,100471.19
2023-03-05T21:19:19.484Z,100468.44
2023-03-05T21:21:45.820Z,100474.03
2023-03-05T21:24:12.624Z,100467.84
2023-03-05T21:26:38.986Z,100467.09
2023-03-05T21:29:05.320Z,100463.59
2023-03-05T21:31:31.641Z,100465.13
2023-03-05T21:33:58.040Z,100475.13
2023-03-05T21:36:24.374Z,100471.31
2023-03-05T21:38:50.675Z,100469.34
2023-03-05T21:41:17.012Z,100459.97
2023-03-05T21:43:43.339Z,100456.63
2023-03-05T21:46:09.728Z,100449.84
2023-03-05T21:48:36.127Z,100451.03
2023-03-05T21:51:02.488Z,100441.81
2023-03-05T21:53:28.785Z,100443.00
2023-03-05T21:55:55.119Z,100430.91
2023-03-05T21:58:21.416Z,100429.38
2023-03-05T22:00:47.793Z,100427.13
2023-03-05T22:03:14.225Z,100418.19
2023-03-05T22:05:40.578Z,100409.25
2023-03-05T22:08:06.940Z,100405.66
2023-03-05T22:10:33.324Z,100401.84
2023-03-05T22:12:59.637Z,100404.59
2023-03-05T22:15:25.964Z,100402.63
2023-03-05T22:17:52.430Z,100400.34
2023-03-05T22:20:18.732Z,100396.09
2023-03-05T22:22:45.031Z,100396.84
2023-03-05T22:25:11.378Z,100397.19
2023-03-05T22:27:37.735Z,100390.97
2023-03-05T22:30:04.104Z,100398.81
2023-03-05T22:32:30.507Z,100393.81
2023-03-05T22:34:56.878Z,100391.72
2023-03-05T22:37:23.205Z,100392.16
2023-03-05T22:39:49.652Z,100384.28
2023-03-05T22:42:16.016Z,100382.47
2023-03-05T22:44:42.381Z,100389.16
2023-03-05T22:47:08.764Z,100393.38
2023-03-05T22:49:35.127Z,100392.94
2023-03-05T22:52:01.527Z,100384.75
2023-03-05T22:54:27.870Z,100381.28
2023-03-05T22:56:54.220Z,100381.41
2023-03-05T22:59:20.618Z,100367.38
2023-03-05T23:01:47.111Z,100368.56
2023-03-05T23:04:13.512Z,100374.78
2023-03-05T23:06:39.903Z,100366.59
2023-03-05T23:09:06.248Z,100365.50
2023-03-05T23:11:32.601Z,100365.84
2023-03-05T23:13:58.926Z,100361.59
2023-03-05T23:16:25.237Z,100367.78
2023-03-05T23:18:51.580Z,100360.81
2023-03-05T23:21:17.916Z,100375.53
2023-03-05T23:23:44.298Z,100359.50
2023-03-05T23:26:10.685Z,100361.91
2023-03-05T23:28:36.996Z,100365.50
2023-03-05T23:31:03.336Z,100365.84
2023-03-05T23:33:29.721Z,100362.34
2023-03-05T23:35:56.117Z,100362.34
2023-03-05T23:38:22.488Z,100353.88
2023-03-05T23:40:48.803Z,100353.13
2023-03-05T23:43:15.135Z,100356.91
2023-03-05T23:45:41.484Z,100350.69
2023-03-05T23:48:07.801Z,100347.97
2023-03-05T23:50:34.102Z,100347.97
2023-03-05T23:53:02.021Z,100348.44
2023-03-05T23:55:28.688Z,100345.25
2023-03-05T23:57:55.074Z,100342.84
